sensor_id;sensor_type;location;lat;lon;timestamp;pressure;altitude;pressure_sealevel;temperature;humidity
39435;BME280;30098;51.880;-0.518;2022-12-11T00:01:22;99963.81;;;13.94;37.57
39435;BME280;30098;51.880;-0.518;2022-12-11T00:03:47;99961.09;;;13.94;36.84
39435;BME280;30098;51.880;-0.518;2022-12-11T00:06:14;99968.44;;;13.94;37.27
39435;BME280;30098;51.880;-0.518;2022-12-11T00:08:40;99962.19;;;13.93;37.26
39435;BME280;30098;51.880;-0.518;2022-12-11T00:11:08;99963.03;;;13.94;37.22
39435;BME280;30098;51.880;-0.518;2022-12-11T00:13:34;99888.00;;;13.41;36.86
39435;BME280;30098;51.880;-0.518;2022-12-11T00:15:59;99963.28;;;13.92;37.21
39435;BME280;30098;51.880;-0.518;2022-12-11T00:18:25;99968.69;;;13.92;37.21
39435;BME280;30098;51.880;-0.518;2022-12-11T00:20:50;99957.06;;;13.92;37.25
39435;BME280;30098;51.880;-0.518;2022-12-11T00:23:15;99957.88;;;13.92;36.77
39435;BME280;30098;51.880;-0.518;2022-12-11T00:25:42;99961.69;;;13.91;36.98
39435;BME280;30098;51.880;-0.518;2022-12-11T00:28:11;99964.41;;;13.91;36.89
39435;BME280;30098;51.880;-0.518;2022-12-11T00:30:40;99960.88;;;13.91;37.51
39435;BME280;30098;51.880;-0.518;2022-12-11T00:33:06;99959.00;;;13.91;36.98
39435;BME280;30098;51.880;-0.518;2022-12-11T00:35:32;99956.28;;;13.91;37.07
39435;BME280;30098;51.880;-0.518;2022-12-11T00:37:57;99937.59;;;13.90;37.10
39435;BME280;30098;51.880;-0.518;2022-12-11T00:40:22;99941.13;;;13.90;37.01
39435;BME280;30098;51.880;-0.518;2022-12-11T00:42:48;99939.50;;;13.89;37.24
39435;BME280;30098;51.880;-0.518;2022-12-11T00:45:13;99953.56;;;13.91;36.49
39435;BME280;30098;51.880;-0.518;2022-12-11T00:47:38;99948.41;;;13.90;36.98
39435;BME280;30098;51.880;-0.518;2022-12-11T00:50:04;99941.13;;;13.90;37.08
39435;BME280;30098;51.880;-0.518;2022-12-11T00:52:29;99941.91;;;13.91;37.15
39435;BME280;30098;51.880;-0.518;2022-12-11T00:54:54;99948.41;;;13.90;37.14
39435;BME280;30098;51.880;-0.518;2022-12-11T00:57:20;99943.84;;;13.90;37.14
39435;BME280;30098;51.880;-0.518;2022-12-11T00:59:45;99938.41;;;13.90;37.25
39435;BME280;30098;51.880;-0.518;2022-12-11T01:02:10;99941.13;;;13.90;37.23
39435;BME280;30098;51.880;-0.518;2022-12-11T01:04:36;99941.13;;;13.90;37.13
39435;BME280;30098;51.880;-0.518;2022-12-11T01:07:01;99944.63;;;13.91;37.03
39435;BME280;30098;51.880;-0.518;2022-12-11T01:09:27;99950.88;;;13.91;37.43
39435;BME280;30098;51.880;-0.518;2022-12-11T01:12:11;99937.31;;;13.91;37.40
39435;BME280;30098;51.880;-0.518;2022-12-11T01:14:36;99937.31;;;13.91;37.05
39435;BME280;30098;51.880;-0.518;2022-12-11T01:17:01;99935.41;;;13.92;37.12
39435;BME280;30098;51.880;-0.518;2022-12-11T01:19:27;99927.28;;;13.92;37.29
39435;BME280;30098;51.880;-0.518;2022-12-11T01:21:52;99928.91;;;13.93;37.01
39435;BME280;30098;51.880;-0.518;2022-12-11T01:24:18;99931.63;;;13.93;37.33
39435;BME280;30098;51.880;-0.518;2022-12-11T01:26:43;99929.69;;;13.93;37.08
39435;BME280;30098;51.880;-0.518;2022-12-11T01:29:08;99927.00;;;13.93;37.21
39435;BME280;30098;51.880;-0.518;2022-12-11T01:31:34;99925.09;;;13.94;36.80
39435;BME280;30098;51.880;-0.518;2022-12-11T01:33:59;99922.09;;;13.95;37.25
39435;BME280;30098;51.880;-0.518;2022-12-11T01:36:25;99913.97;;;13.95;37.00
39435;BME280;30098;51.880;-0.518;2022-12-11T01:38:50;99919.41;;;13.95;37.30
39435;BME280;30098;51.880;-0.518;2022-12-11T01:41:18;99918.59;;;13.95;36.88
39435;BME280;30098;51.880;-0.518;2022-12-11T01:46:20;99923.72;;;13.96;37.15
39435;BME280;30098;51.880;-0.518;2022-12-11T01:48:46;99915.59;;;13.96;36.88
39435;BME280;30098;51.880;-0.518;2022-12-11T01:51:11;99913.69;;;13.97;37.20
39435;BME280;30098;51.880;-0.518;2022-12-11T01:53:38;99916.38;;;13.97;37.09
39435;BME280;30098;51.880;-0.518;2022-12-11T01:56:04;99917.47;;;13.96;37.09
39435;BME280;30098;51.880;-0.518;2022-12-11T01:58:31;99915.59;;;13.96;36.62
39435;BME280;30098;51.880;-0.518;2022-12-11T02:00:57;99917.22;;;13.97;37.07
39435;BME280;30098;51.880;-0.518;2022-12-11T02:03:24;99910.69;;;13.98;37.35
39435;BME280;30098;51.880;-0.518;2022-12-11T02:05:49;99826.81;;;13.45;37.13
39435;BME280;30098;51.880;-0.518;2022-12-11T02:08:14;99916.13;;;13.98;36.93
39435;BME280;30098;51.880;-0.518;2022-12-11T02:13:17;99916.13;;;13.98;37.31
39435;BME280;30098;51.880;-0.518;2022-12-11T02:15:50;99910.69;;;13.98;37.10
39435;BME280;30098;51.880;-0.518;2022-12-11T02:18:19;99915.81;;;14.00;36.80
39435;BME280;30098;51.880;-0.518;2022-12-11T02:28:42;99907.41;;;14.02;37.11
39435;BME280;30098;51.880;-0.518;2022-12-11T02:31:11;99910.09;;;14.02;36.99
39435;BME280;30098;51.880;-0.518;2022-12-11T02:33:40;99904.69;;;14.02;36.63
39435;BME280;30098;51.880;-0.518;2022-12-11T02:36:08;99912.81;;;14.02;37.16
39435;BME280;30098;51.880;-0.518;2022-12-11T02:38:35;99910.94;;;14.02;37.13
39435;BME280;30098;51.880;-0.518;2022-12-11T02:41:01;99917.16;;;14.03;37.06
39435;BME280;30098;51.880;-0.518;2022-12-11T02:43:29;99912.53;;;14.03;36.66
39435;BME280;30098;51.880;-0.518;2022-12-11T02:45:55;99914.44;;;14.03;37.15
39435;BME280;30098;51.880;-0.518;2022-12-11T02:48:22;99825.97;;;13.49;36.49
39435;BME280;30098;51.880;-0.518;2022-12-11T02:50:49;99907.94;;;14.04;36.68
39435;BME280;30098;51.880;-0.518;2022-12-11T02:53:23;99907.94;;;14.04;36.93
39435;BME280;30098;51.880;-0.518;2022-12-11T02:55:51;99907.94;;;14.04;36.45
39435;BME280;30098;51.880;-0.518;2022-12-11T02:58:22;99907.94;;;14.04;36.94
39435;BME280;30098;51.880;-0.518;2022-12-11T03:00:50;99906.84;;;14.05;36.85
39435;BME280;30098;51.880;-0.518;2022-12-11T03:03:15;99903.31;;;14.04;36.63
39435;BME280;30098;51.880;-0.518;2022-12-11T03:05:41;99896.00;;;14.05;36.86
39435;BME280;30098;51.880;-0.518;2022-12-11T03:08:07;99896.00;;;14.05;37.00
39435;BME280;30098;51.880;-0.518;2022-12-11T03:10:32;99897.63;;;14.06;36.45
39435;BME280;30098;51.880;-0.518;2022-12-11T03:12:58;99894.09;;;14.05;36.79
39435;BME280;30098;51.880;-0.518;2022-12-11T03:15:29;99888.66;;;14.05;36.95
39435;BME280;30098;51.880;-0.518;2022-12-11T03:20:40;99885.97;;;14.05;36.62
39435;BME280;30098;51.880;-0.518;2022-12-11T03:23:17;99878.34;;;14.07;36.60
39435;BME280;30098;51.880;-0.518;2022-12-11T03:30:53;99870.22;;;14.07;36.61
39435;BME280;30098;51.880;-0.518;2022-12-11T03:33:28;99871.03;;;14.08;36.96
39435;BME280;30098;51.880;-0.518;2022-12-11T03:35:56;99870.22;;;14.07;36.86
39435;BME280;30098;51.880;-0.518;2022-12-11T03:38:35;99865.59;;;14.08;36.40
39435;BME280;30098;51.880;-0.518;2022-12-11T03:41:02;99855.59;;;14.08;36.79
39435;BME280;30098;51.880;-0.518;2022-12-11T03:43:28;99851.78;;;14.09;36.42
39435;BME280;30098;51.880;-0.518;2022-12-11T03:45:56;99856.38;;;14.09;36.52
39435;BME280;30098;51.880;-0.518;2022-12-11T03:48:22;99864.50;;;14.09;36.81
39435;BME280;30098;51.880;-0.518;2022-12-11T03:50:49;99848.25;;;14.09;37.00
39435;BME280;30098;51.880;-0.518;2022-12-11T03:53:15;99856.38;;;14.09;36.61
39435;BME280;30098;51.880;-0.518;2022-12-11T03:55:42;99864.50;;;14.09;36.63
39435;BME280;30098;51.880;-0.518;2022-12-11T03:58:09;99864.50;;;14.09;36.64
39435;BME280;30098;51.880;-0.518;2022-12-11T04:00:34;99861.50;;;14.10;36.39
39435;BME280;30098;51.880;-0.518;2022-12-11T04:03:00;99858.00;;;14.10;36.52
39435;BME280;30098;51.880;-0.518;2022-12-11T04:05:38;99856.09;;;14.10;36.64
39435;BME280;30098;51.880;-0.518;2022-12-11T04:08:03;99859.63;;;14.11;36.39
39435;BME280;30098;51.880;-0.518;2022-12-11T04:10:29;99862.31;;;14.11;36.71
39435;BME280;30098;51.880;-0.518;2022-12-11T04:12:54;99862.31;;;14.11;36.88
39435;BME280;30098;51.880;-0.518;2022-12-11T04:15:20;99859.63;;;14.11;36.47
39435;BME280;30098;51.880;-0.518;2022-12-11T04:17:45;99848.78;;;14.11;36.63
39435;BME280;30098;51.880;-0.518;2022-12-11T04:20:29;99850.41;;;14.12;36.36
39435;BME280;30098;51.880;-0.518;2022-12-11T04:23:14;99849.56;;;14.11;36.77
39435;BME280;30098;51.880;-0.518;2022-12-11T04:26:09;99847.69;;;14.12;36.81
39435;BME280;30098;51.880;-0.518;2022-12-11T04:28:35;99848.47;;;14.12;36.59
39435;BME280;30098;51.880;-0.518;2022-12-11T04:31:01;99843.06;;;14.12;36.83
39435;BME280;30098;51.880;-0.518;2022-12-11T04:33:26;99757.38;;;13.59;36.39
39435;BME280;30098;51.880;-0.518;2022-12-11T04:35:52;99839.25;;;14.13;36.87
39435;BME280;30098;51.880;-0.518;2022-12-11T04:38:17;99843.88;;;14.13;36.95
39435;BME280;30098;51.880;-0.518;2022-12-11T04:40:42;99843.06;;;14.12;36.65
39435;BME280;30098;51.880;-0.518;2022-12-11T04:43:08;99847.69;;;14.12;36.91
39435;BME280;30098;51.880;-0.518;2022-12-11T04:45:33;99841.97;;;14.13;36.42
39435;BME280;30098;51.880;-0.518;2022-12-11T04:47:59;99848.47;;;14.12;36.60
39435;BME280;30098;51.880;-0.518;2022-12-11T04:50:24;99851.19;;;14.12;36.43
39435;BME280;30098;51.880;-0.518;2022-12-11T04:52:50;99843.88;;;14.13;36.69
39435;BME280;30098;51.880;-0.518;2022-12-11T04:55:18;99840.34;;;14.12;36.80
39435;BME280;30098;51.880;-0.518;2022-12-11T04:57:43;99847.69;;;14.12;36.93
39435;BME280;30098;51.880;-0.518;2022-12-11T05:00:09;99839.56;;;14.12;36.43
39435;BME280;30098;51.880;-0.518;2022-12-11T05:02:35;99830.63;;;14.11;36.52
39435;BME280;30098;51.880;-0.518;2022-12-11T05:05:02;99829.81;;;14.11;36.91
39435;BME280;30098;51.880;-0.518;2022-12-11T05:07:27;99824.41;;;14.11;36.91
39435;BME280;30098;51.880;-0.518;2022-12-11T05:09:53;99816.28;;;14.11;36.61
39435;BME280;30098;51.880;-0.518;2022-12-11T05:12:18;99818.16;;;14.10;36.72
39435;BME280;30098;51.880;-0.518;2022-12-11T05:14:43;99813.56;;;14.11;36.78
39435;BME280;30098;51.880;-0.518;2022-12-11T05:17:09;99813.88;;;14.09;36.85
39435;BME280;30098;51.880;-0.518;2022-12-11T05:19:34;99811.94;;;14.10;36.47
39435;BME280;30098;51.880;-0.518;2022-12-11T05:21:59;99820.88;;;14.10;36.67
39435;BME280;30098;51.880;-0.518;2022-12-11T05:24:25;99812.25;;;14.08;36.94
39435;BME280;30098;51.880;-0.518;2022-12-11T05:26:50;99815.75;;;14.09;36.59
39435;BME280;30098;51.880;-0.518;2022-12-11T05:29:15;99812.25;;;14.08;36.63
39435;BME280;30098;51.880;-0.518;2022-12-11T05:31:41;99823.09;;;14.08;36.46
39435;BME280;30098;51.880;-0.518;2022-12-11T05:34:06;99821.16;;;14.09;36.34
39435;BME280;30098;51.880;-0.518;2022-12-11T05:36:32;99824.97;;;14.08;36.55
39435;BME280;30098;51.880;-0.518;2022-12-11T05:38:58;99823.34;;;14.07;36.42
39435;BME280;30098;51.880;-0.518;2022-12-11T05:41:25;99824.19;;;14.07;36.96
39435;BME280;30098;51.880;-0.518;2022-12-11T05:43:50;99752.75;;;13.60;36.96
39435;BME280;30098;51.880;-0.518;2022-12-11T05:46:20;99824.47;;;14.06;36.90
39435;BME280;30098;51.880;-0.518;2022-12-11T05:48:47;99822.88;;;14.05;36.41
39435;BME280;30098;51.880;-0.518;2022-12-11T05:51:13;99824.47;;;14.06;36.40
39435;BME280;30098;51.880;-0.518;2022-12-11T05:53:39;99825.56;;;14.05;36.85
39435;BME280;30098;51.880;-0.518;2022-12-11T05:56:06;99822.88;;;14.05;36.18
39435;BME280;30098;51.880;-0.518;2022-12-11T05:58:32;99824.75;;;14.04;36.40
39435;BME280;30098;51.880;-0.518;2022-12-11T06:00:58;99830.16;;;14.04;36.86
39435;BME280;30098;51.880;-0.518;2022-12-11T06:03:24;99834.78;;;14.04;36.39
39435;BME280;30098;51.880;-0.518;2022-12-11T06:05:49;99822.34;;;14.03;36.79
39435;BME280;30098;51.880;-0.518;2022-12-11T06:08:14;99818.84;;;14.02;36.79
39435;BME280;30098;51.880;-0.518;2022-12-11T06:10:49;99816.13;;;14.02;36.70
39435;BME280;30098;51.880;-0.518;2022-12-11T06:13:15;99815.31;;;14.02;36.36
39435;BME280;30098;51.880;-0.518;2022-12-11T06:15:41;99819.94;;;14.01;36.48
39435;BME280;30098;51.880;-0.518;2022-12-11T06:18:06;99819.13;;;14.01;36.20
39435;BME280;30098;51.880;-0.518;2022-12-11T06:20:32;99818.31;;;14.00;36.79
39435;BME280;30098;51.880;-0.518;2022-12-11T06:22:58;99822.13;;;13.99;36.52
39435;BME280;30098;51.880;-0.518;2022-12-11T06:25:23;99750.19;;;13.49;36.14
39435;BME280;30098;51.880;-0.518;2022-12-11T06:27:49;99813.19;;;13.98;36.15
39435;BME280;30098;51.880;-0.518;2022-12-11T06:30:14;99810.50;;;13.98;36.23
39435;BME280;30098;51.880;-0.518;2022-12-11T06:32:40;99818.63;;;13.98;36.51
39435;BME280;30098;51.880;-0.518;2022-12-11T06:35:06;99813.47;;;13.97;36.83
39435;BME280;30098;51.880;-0.518;2022-12-11T06:37:33;99820.50;;;13.98;36.12
39435;BME280;30098;51.880;-0.518;2022-12-11T06:39:58;99821.59;;;13.97;36.29
39435;BME280;30098;51.880;-0.518;2022-12-11T06:42:23;99812.69;;;13.96;36.63
39435;BME280;30098;51.880;-0.518;2022-12-11T06:44:49;99801.84;;;13.96;36.50
39435;BME280;30098;51.880;-0.518;2022-12-11T06:47:14;99809.97;;;13.96;36.17
39435;BME280;30098;51.880;-0.518;2022-12-11T06:49:39;99813.78;;;13.95;36.33
39435;BME280;30098;51.880;-0.518;2022-12-11T06:52:05;99817.28;;;13.96;36.71
39435;BME280;30098;51.880;-0.518;2022-12-11T06:54:30;99737.22;;;13.46;36.40
39435;BME280;30098;51.880;-0.518;2022-12-11T06:56:56;99815.69;;;13.95;36.56
39435;BME280;30098;51.880;-0.518;2022-12-11T06:59:21;99810.28;;;13.95;36.29
39435;BME280;30098;51.880;-0.518;2022-12-11T07:01:46;99814.56;;;13.96;36.41
39435;BME280;30098;51.880;-0.518;2022-12-11T07:04:12;99816.47;;;13.95;36.35
39435;BME280;30098;51.880;-0.518;2022-12-11T07:06:37;99819.97;;;13.96;36.84
39435;BME280;30098;51.880;-0.518;2022-12-11T07:09:03;99819.19;;;13.95;36.44
39435;BME280;30098;51.880;-0.518;2022-12-11T07:11:29;99821.09;;;13.95;36.04
39435;BME280;30098;51.880;-0.518;2022-12-11T07:13:57;99811.06;;;13.95;36.32
39435;BME280;30098;51.880;-0.518;2022-12-11T07:16:22;99819.97;;;13.96;36.30
39435;BME280;30098;51.880;-0.518;2022-12-11T07:18:48;99825.41;;;13.96;36.52
39435;BME280;30098;51.880;-0.518;2022-12-11T07:21:14;99825.41;;;13.96;36.71
39435;BME280;30098;51.880;-0.518;2022-12-11T07:23:40;99828.94;;;13.96;36.30
39435;BME280;30098;51.880;-0.518;2022-12-11T07:26:06;99823.50;;;13.96;36.06
39435;BME280;30098;51.880;-0.518;2022-12-11T07:28:32;99744.81;;;13.44;36.10
39435;BME280;30098;51.880;-0.518;2022-12-11T07:30:57;99834.34;;;13.96;36.68
39435;BME280;30098;51.880;-0.518;2022-12-11T07:33:22;99824.31;;;13.97;36.31
39435;BME280;30098;51.880;-0.518;2022-12-11T07:35:48;99830.53;;;13.97;36.68
39435;BME280;30098;51.880;-0.518;2022-12-11T07:38:13;99830.53;;;13.97;36.06
39435;BME280;30098;51.880;-0.518;2022-12-11T07:40:39;99830.25;;;13.99;36.32
39435;BME280;30098;51.880;-0.518;2022-12-11T07:43:04;99825.13;;;13.97;36.37
39435;BME280;30098;51.880;-0.518;2022-12-11T07:45:29;99828.63;;;13.98;35.95
39435;BME280;30098;51.880;-0.518;2022-12-11T07:47:55;99824.03;;;13.98;36.36
39435;BME280;30098;51.880;-0.518;2022-12-11T07:50:20;99821.31;;;13.98;36.17
39435;BME280;30098;51.880;-0.518;2022-12-11T07:52:46;99821.31;;;13.98;36.18
39435;BME280;30098;51.880;-0.518;2022-12-11T07:55:11;99817.50;;;14.00;36.00
39435;BME280;30098;51.880;-0.518;2022-12-11T07:57:37;99812.91;;;14.00;35.97
39435;BME280;30098;51.880;-0.518;2022-12-11T08:00:03;99814.78;;;14.00;36.06
39435;BME280;30098;51.880;-0.518;2022-12-11T08:02:28;99807.47;;;14.00;36.45
39435;BME280;30098;51.880;-0.518;2022-12-11T08:04:54;99821.03;;;14.00;36.60
39435;BME280;30098;51.880;-0.518;2022-12-11T08:07:19;99824.53;;;14.01;36.10
39435;BME280;30098;51.880;-0.518;2022-12-11T08:09:44;99827.22;;;14.01;36.33
39435;BME280;30098;51.880;-0.518;2022-12-11T08:12:10;99829.94;;;14.01;36.33
39435;BME280;30098;51.880;-0.518;2022-12-11T08:14:36;99743.94;;;13.49;36.57
39435;BME280;30098;51.880;-0.518;2022-12-11T08:17:01;99826.97;;;14.02;36.30
39435;BME280;30098;51.880;-0.518;2022-12-11T08:19:27;99826.16;;;14.02;36.14
39435;BME280;30098;51.880;-0.518;2022-12-11T08:21:52;99828.84;;;14.02;35.99
39435;BME280;30098;51.880;-0.518;2022-12-11T08:24:17;99836.97;;;14.02;36.44
39435;BME280;30098;51.880;-0.518;2022-12-11T08:26:45;99827.75;;;14.03;35.93
39435;BME280;30098;51.880;-0.518;2022-12-11T08:29:11;99825.06;;;14.03;36.06
39435;BME280;30098;51.880;-0.518;2022-12-11T08:31:37;99825.84;;;14.03;36.23
39435;BME280;30098;51.880;-0.518;2022-12-11T08:34:03;99827.75;;;14.03;36.09
39435;BME280;30098;51.880;-0.518;2022-12-11T08:36:28;99740.44;;;13.48;35.98
39435;BME280;30098;51.880;-0.518;2022-12-11T08:38:54;99822.34;;;14.03;36.43
39435;BME280;30098;51.880;-0.518;2022-12-11T08:41:20;99740.69;;;13.52;36.40
39435;BME280;30098;51.880;-0.518;2022-12-11T08:43:46;99823.97;;;14.04;36.56
39435;BME280;30098;51.880;-0.518;2022-12-11T08:46:12;99822.88;;;14.05;36.06
39435;BME280;30098;51.880;-0.518;2022-12-11T08:48:39;99819.34;;;14.04;36.42
39435;BME280;30098;51.880;-0.518;2022-12-11T08:51:05;99816.63;;;14.04;36.14
39435;BME280;30098;51.880;-0.518;2022-12-11T08:53:31;99814.75;;;14.05;36.01
39435;BME280;30098;51.880;-0.518;2022-12-11T08:56:00;99820.16;;;14.05;36.01
39435;BME280;30098;51.880;-0.518;2022-12-11T08:58:26;99816.63;;;14.04;36.34
39435;BME280;30098;51.880;-0.518;2022-12-11T09:00:51;99820.94;;;14.05;35.80
39435;BME280;30098;51.880;-0.518;2022-12-11T09:03:16;99736.88;;;13.53;36.05
39435;BME280;30098;51.880;-0.518;2022-12-11T09:05:41;99826.38;;;14.05;36.42
39435;BME280;30098;51.880;-0.518;2022-12-11T09:08:07;99827.97;;;14.06;36.29
39435;BME280;30098;51.880;-0.518;2022-12-11T09:10:32;99824.47;;;14.06;36.38
39435;BME280;30098;51.880;-0.518;2022-12-11T09:12:57;99830.69;;;14.06;36.15
39435;BME280;30098;51.880;-0.518;2022-12-11T09:15:23;99827.97;;;14.06;36.45
39435;BME280;30098;51.880;-0.518;2022-12-11T09:17:48;99743.09;;;13.54;36.00
39435;BME280;30098;51.880;-0.518;2022-12-11T09:20:13;99827.97;;;14.06;36.25
39435;BME280;30098;51.880;-0.518;2022-12-11T09:22:39;99817.16;;;14.06;35.67
39435;BME280;30098;51.880;-0.518;2022-12-11T09:25:07;99819.84;;;14.06;36.31
39435;BME280;30098;51.880;-0.518;2022-12-11T09:27:32;99826.88;;;14.07;35.91
39435;BME280;30098;51.880;-0.518;2022-12-11T09:29:58;99830.69;;;14.06;36.57
39435;BME280;30098;51.880;-0.518;2022-12-11T09:32:23;99836.09;;;14.06;36.32
39435;BME280;30098;51.880;-0.518;2022-12-11T09:34:49;99837.72;;;14.07;35.82
39435;BME280;30098;51.880;-0.518;2022-12-11T09:37:14;99831.47;;;14.07;36.21
39435;BME280;30098;51.880;-0.518;2022-12-11T09:39:40;99837.72;;;14.07;35.95
39435;BME280;30098;51.880;-0.518;2022-12-11T09:42:13;99842.31;;;14.07;36.34
39435;BME280;30098;51.880;-0.518;2022-12-11T09:44:47;99837.72;;;14.07;36.09
39435;BME280;30098;51.880;-0.518;2022-12-11T09:47:19;99840.44;;;14.07;36.22
39435;BME280;30098;51.880;-0.518;2022-12-11T09:49:45;99830.69;;;14.06;36.13
39435;BME280;30098;51.880;-0.518;2022-12-11T09:55:16;99838.03;;;14.06;36.13
39435;BME280;30098;51.880;-0.518;2022-12-11T10:13:10;99831.78;;;14.05;36.00
39435;BME280;30098;51.880;-0.518;2022-12-11T10:17:59;99829.38;;;14.04;35.86
39435;BME280;30098;51.880;-0.518;2022-12-11T10:20:35;99797.41;;;13.81;36.27
39435;BME280;30098;51.880;-0.518;2022-12-11T10:23:08;99833.19;;;14.03;36.60
39435;BME280;30098;51.880;-0.518;2022-12-11T10:25:41;99830.47;;;14.03;36.51
39435;BME280;30098;51.880;-0.518;2022-12-11T10:28:15;99827.75;;;14.03;35.93
39435;BME280;30098;51.880;-0.518;2022-12-11T10:30:54;99834.28;;;14.02;36.40
39435;BME280;30098;51.880;-0.518;2022-12-11T10:33:48;99833.47;;;14.01;36.35
39435;BME280;30098;51.880;-0.518;2022-12-11T10:36:08;99830.75;;;14.01;36.58
39435;BME280;30098;51.880;-0.518;2022-12-11T10:38:39;99829.94;;;14.01;36.07
39435;BME280;30098;51.880;-0.518;2022-12-11T10:41:13;99829.94;;;14.01;36.46
39435;BME280;30098;51.880;-0.518;2022-12-11T10:43:42;99822.13;;;13.99;36.35
39435;BME280;30098;51.880;-0.518;2022-12-11T10:48:46;99824.81;;;13.99;36.38
39435;BME280;30098;51.880;-0.518;2022-12-11T10:51:12;99823.22;;;13.98;36.33
39435;BME280;30098;51.880;-0.518;2022-12-11T10:53:38;99814.28;;;13.97;36.22
39435;BME280;30098;51.880;-0.518;2022-12-11T10:56:04;99817.78;;;13.98;36.25
39435;BME280;30098;51.880;-0.518;2022-12-11T10:58:31;99814.28;;;13.97;36.49
39435;BME280;30098;51.880;-0.518;2022-12-11T11:01:02;99808.88;;;13.97;35.99
39435;BME280;30098;51.880;-0.518;2022-12-11T11:03:29;99806.44;;;13.96;36.59
39435;BME280;30098;51.880;-0.518;2022-12-11T11:06:04;99815.69;;;13.95;36.24
39435;BME280;30098;51.880;-0.518;2022-12-11T11:08:40;99812.97;;;13.95;36.21
39435;BME280;30098;51.880;-0.518;2022-12-11T11:11:12;99808.34;;;13.95;36.38
39435;BME280;30098;51.880;-0.518;2022-12-11T11:13:44;99806.75;;;13.94;36.65
39435;BME280;30098;51.880;-0.518;2022-12-11T11:16:14;99801.31;;;13.94;36.08
39435;BME280;30098;51.880;-0.518;2022-12-11T11:18:40;99795.91;;;13.94;36.07
39435;BME280;30098;51.880;-0.518;2022-12-11T11:21:06;99799.69;;;13.93;36.17
39435;BME280;30098;51.880;-0.518;2022-12-11T11:23:40;99802.41;;;13.93;36.44
39435;BME280;30098;51.880;-0.518;2022-12-11T11:26:05;99787.25;;;13.92;35.85
39435;BME280;30098;51.880;-0.518;2022-12-11T11:28:35;99791.09;;;13.91;36.25
39435;BME280;30098;51.880;-0.518;2022-12-11T11:31:09;99793.78;;;13.91;36.22
39435;BME280;30098;51.880;-0.518;2022-12-11T11:33:36;99789.97;;;13.92;36.63
39435;BME280;30098;51.880;-0.518;2022-12-11T11:36:16;99784.84;;;13.91;36.51
39435;BME280;30098;51.880;-0.518;2022-12-11T11:41:40;99779.44;;;13.91;36.45
39435;BME280;30098;51.880;-0.518;2022-12-11T11:44:09;99791.34;;;13.90;36.31
39435;BME280;30098;51.880;-0.518;2022-12-11T11:46:37;99797.59;;;13.90;36.38
39435;BME280;30098;51.880;-0.518;2022-12-11T11:49:21;99795.97;;;13.89;36.46
39435;BME280;30098;51.880;-0.518;2022-12-11T11:51:55;99787.03;;;13.89;35.93
39435;BME280;30098;51.880;-0.518;2022-12-11T11:54:35;99789.75;;;13.89;36.53
39435;BME280;30098;51.880;-0.518;2022-12-11T11:57:04;99782.75;;;13.88;36.75
39435;BME280;30098;51.880;-0.518;2022-12-11T11:59:39;99793.56;;;13.88;36.47
39435;BME280;30098;51.880;-0.518;2022-12-11T12:02:12;99787.34;;;13.87;36.38
39435;BME280;30098;51.880;-0.518;2022-12-11T12:04:38;99790.88;;;13.88;36.10
39435;BME280;30098;51.880;-0.518;2022-12-11T12:22:22;99691.09;;;13.32;36.40
39435;BME280;30098;51.880;-0.518;2022-12-11T12:25:09;99777.06;;;13.84;36.04
39435;BME280;30098;51.880;-0.518;2022-12-11T12:30:15;99773.56;;;13.84;36.13
39435;BME280;30098;51.880;-0.518;2022-12-11T12:32:52;99779.28;;;13.82;36.79
39435;BME280;30098;51.880;-0.518;2022-12-11T12:42:48;99767.63;;;13.81;36.33
39435;BME280;30098;51.880;-0.518;2022-12-11T12:47:45;99762.28;;;13.76;36.25
39435;BME280;30098;51.880;-0.518;2022-12-11T12:50:13;99759.81;;;13.80;36.62
39435;BME280;30098;51.880;-0.518;2022-12-11T12:52:40;99760.91;;;13.79;36.77
39435;BME280;30098;51.880;-0.518;2022-12-11T12:55:17;99761.72;;;13.79;36.27
39435;BME280;30098;51.880;-0.518;2022-12-11T12:57:48;99757.41;;;13.78;36.52
39435;BME280;30098;51.880;-0.518;2022-12-11T13:02:55;99758.19;;;13.79;36.16
39435;BME280;30098;51.880;-0.518;2022-12-11T13:05:31;99750.38;;;13.77;36.26
39435;BME280;30098;51.880;-0.518;2022-12-11T13:08:01;99751.97;;;13.78;36.23
39435;BME280;30098;51.880;-0.518;2022-12-11T13:10:31;99742.53;;;13.76;36.32
39435;BME280;30098;51.880;-0.518;2022-12-11T13:12:58;99756.09;;;13.76;37.11
39435;BME280;30098;51.880;-0.518;2022-12-11T13:15:40;99757.97;;;13.75;36.20
39435;BME280;30098;51.880;-0.518;2022-12-11T13:20:52;99759.06;;;13.74;36.16
39435;BME280;30098;51.880;-0.518;2022-12-11T13:23:19;99752.84;;;13.74;36.40
39435;BME280;30098;51.880;-0.518;2022-12-11T13:25:54;99737.56;;;13.64;36.49
39435;BME280;30098;51.880;-0.518;2022-12-11T13:28:21;99758.25;;;13.74;36.39
39435;BME280;30098;51.880;-0.518;2022-12-11T13:33:21;99760.16;;;13.73;36.04
39435;BME280;30098;51.880;-0.518;2022-12-11T13:35:47;99753.16;;;13.72;36.70
39435;BME280;30098;51.880;-0.518;2022-12-11T13:38:16;99756.66;;;13.73;36.24
39435;BME280;30098;51.880;-0.518;2022-12-11T13:40:43;99753.94;;;13.73;36.77
39435;BME280;30098;51.880;-0.518;2022-12-11T13:43:17;99746.13;;;13.71;36.40
39435;BME280;30098;51.880;-0.518;2022-12-11T13:45:54;99746.91;;;13.72;36.17
39435;BME280;30098;51.880;-0.518;2022-12-11T13:48:22;99746.13;;;13.71;36.89
39435;BME280;30098;51.880;-0.518;2022-12-11T13:50:48;99750.72;;;13.71;36.56
39435;BME280;30098;51.880;-0.518;2022-12-11T13:53:16;99748.81;;;13.71;36.53
39435;BME280;30098;51.880;-0.518;2022-12-11T13:55:42;99747.22;;;13.70;36.15
39435;BME280;30098;51.880;-0.518;2022-12-11T13:58:14;99744.50;;;13.70;36.23
39435;BME280;30098;51.880;-0.518;2022-12-11T14:00:40;99742.09;;;13.69;36.78
39435;BME280;30098;51.880;-0.518;2022-12-11T14:03:05;99751.81;;;13.70;36.63
39435;BME280;30098;51.880;-0.518;2022-12-11T14:05:34;99759.13;;;13.69;36.42
39435;BME280;30098;51.880;-0.518;2022-12-11T14:08:01;99753.72;;;13.69;37.23
39435;BME280;30098;51.880;-0.518;2022-12-11T14:10:30;99746.41;;;13.70;36.50
39435;BME280;30098;51.880;-0.518;2022-12-11T14:15:28;99755.09;;;13.66;36.23
39435;BME280;30098;51.880;-0.518;2022-12-11T14:17:54;99761.31;;;13.67;36.30